Time;durP1;ratioP1;P1;durP2;ratioP2;P2;SDS_P1;SDS_P2;PMS_P1;PMS_P2;Temp;Humidity;BMP_temperature;BMP_pressure;BME280_temperature;BME280_humidity;BME280_pressure;Samples;Min_cycle;Max_cycle;Signal;HPM_P1;HPM_P2
2022/04/06 00:00:53;;;;;;;14.50;12.23;;;10.60;99.90;;;;;;5073493;28;20477;-52
2022/04/06 00:03:20;;;;;;;15.77;12.50;;;10.60;99.90;;;;;;5073522;28;20426;-52
2022/04/06 00:05:46;;;;;;;13.77;12.33;;;10.60;99.90;;;;;;5073237;28;20453;-52
2022/04/06 00:08:14;;;;;;;13.33;12.03;;;10.70;99.90;;;;;;5073630;28;20438;-51
2022/04/06 00:10:41;;;;;;;12.93;11.30;;;10.60;99.90;;;;;;5072982;28;20404;-52
2022/04/06 00:13:08;;;;;;;13.93;11.73;;;10.60;99.90;;;;;;5072277;28;20798;-52
2022/04/06 00:15:35;;;;;;;13.00;11.67;;;10.60;99.90;;;;;;5072772;28;20612;-52
2022/04/06 00:18:02;;;;;;;12.97;11.67;;;10.60;99.90;;;;;;5073037;28;20466;-52
2022/04/06 00:20:28;;;;;;;11.57;10.47;;;10.60;99.90;;;;;;5072737;28;20802;-52
2022/04/06 00:22:55;;;;;;;12.07;10.83;;;10.50;99.90;;;;;;5073002;28;20438;-51
2022/04/06 00:25:24;;;;;;;11.90;10.70;;;10.60;99.90;;;;;;5072725;28;20473;-51
2022/04/06 00:27:50;;;;;;;11.97;10.40;;;10.60;99.90;;;;;;5073086;28;20462;-52
2022/04/06 00:30:17;;;;;;;11.70;10.53;;;10.60;99.90;;;;;;5072553;28;20426;-51
2022/04/06 00:32:43;;;;;;;12.93;11.63;;;10.70;99.90;;;;;;5072692;28;20434;-51
2022/04/06 00:37:54;;;;;;;10.17;9.17;;;10.60;99.90;;;;;;5072553;28;20439;-52
2022/04/06 00:40:22;;;;;;;10.30;9.20;;;10.70;99.90;;;;;;5072357;28;20937;-51
2022/04/06 00:42:50;;;;;;;10.83;9.73;;;10.60;99.90;;;;;;5072754;28;20442;-52
2022/04/06 00:45:17;;;;;;;11.40;9.30;;;10.70;99.90;;;;;;5072362;28;20444;-52
2022/04/06 00:47:44;;;;;;;10.27;9.27;;;10.70;99.90;;;;;;5072809;28;20475;-51
2022/04/06 00:50:11;;;;;;;10.00;9.00;;;10.80;99.90;;;;;;5072125;28;20795;-52
2022/04/06 00:52:39;;;;;;;11.30;10.20;;;10.80;99.90;;;;;;5072173;28;20972;-52
2022/04/06 00:55:07;;;;;;;11.27;9.40;;;10.80;99.90;;;;;;5075033;28;20450;-52
2022/04/06 00:57:35;;;;;;;10.67;9.13;;;10.80;99.90;;;;;;5092456;28;20425;-52
2022/04/06 01:00:05;;;;;;;10.80;9.80;;;10.80;99.90;;;;;;5092389;28;20841;-52
2022/04/06 01:02:32;;;;;;;10.50;9.40;;;10.80;99.90;;;;;;5092431;28;20437;-51
2022/04/06 01:04:59;;;;;;;12.27;11.10;;;10.80;99.90;;;;;;5092203;28;20414;-51
2022/04/06 01:07:26;;;;;;;10.90;9.83;;;10.80;99.90;;;;;;5092384;28;20798;-51
2022/04/06 01:09:52;;;;;;;11.73;10.57;;;10.80;99.90;;;;;;5092669;28;20433;-51
2022/04/06 01:12:22;;;;;;;12.40;11.20;;;10.80;99.90;;;;;;5092982;28;20418;-52
2022/04/06 01:14:48;;;;;;;11.77;10.57;;;10.80;99.90;;;;;;5093228;28;20422;-52
2022/04/06 01:17:17;;;;;;;11.50;10.40;;;10.80;99.90;;;;;;5092031;28;20453;-51
2022/04/06 01:19:45;;;;;;;11.73;10.63;;;10.80;99.90;;;;;;5092166;28;20448;-51
2022/04/06 01:22:15;;;;;;;12.13;10.93;;;10.80;99.90;;;;;;5092128;28;20468;-51
2022/04/06 01:24:43;;;;;;;13.33;11.83;;;10.80;99.90;;;;;;5091723;28;20424;-52
2022/04/06 01:27:10;;;;;;;17.97;11.07;;;10.80;99.90;;;;;;5092012;28;20439;-52
2022/04/06 01:29:37;;;;;;;13.33;12.00;;;10.70;99.90;;;;;;5091910;28;20441;-52
2022/04/06 01:32:09;;;;;;;13.43;11.43;;;10.80;99.90;;;;;;5091987;28;20413;-51
2022/04/06 01:34:36;;;;;;;12.70;11.43;;;10.80;99.90;;;;;;5091873;28;20424;-52
2022/04/06 01:37:03;;;;;;;12.70;11.40;;;10.80;99.90;;;;;;5091769;28;20510;-51
2022/04/06 01:39:31;;;;;;;12.90;11.60;;;10.80;99.90;;;;;;5091690;28;20444;-52
2022/04/06 01:41:58;;;;;;;13.77;12.37;;;10.80;99.90;;;;;;5091715;28;20495;-52
2022/04/06 01:44:25;;;;;;;13.80;12.40;;;10.80;99.90;;;;;;5091671;28;20435;-51
2022/04/06 01:46:52;;;;;;;12.80;11.47;;;10.80;99.90;;;;;;5091667;28;20453;-51
2022/04/06 01:52:15;;;;;;;14.17;12.77;;;10.80;99.90;;;;;;5092020;28;20750;-52
2022/04/06 01:54:45;;;;;;;15.80;12.67;;;10.80;99.90;;;;;;5075555;28;20526;-52
2022/04/06 01:57:12;;;;;;;14.20;12.70;;;10.90;99.90;;;;;;5051432;28;20451;-52
2022/04/06 01:59:39;;;;;;;14.37;12.93;;;10.90;99.90;;;;;;5051505;28;20443;-52
2022/04/06 02:02:08;;;;;;;13.07;11.53;;;10.90;99.90;;;;;;5051555;28;20485;-51
2022/04/06 02:04:35;;;;;;;16.57;13.63;;;10.90;99.90;;;;;;5051379;28;20434;-52
2022/04/06 02:07:01;;;;;;;15.43;13.57;;;10.90;99.90;;;;;;5051465;28;20541;-51
2022/04/06 02:09:28;;;;;;;15.70;13.33;;;10.90;99.90;;;;;;5050893;28;20441;-51
2022/04/06 02:11:56;;;;;;;15.40;13.67;;;10.90;99.90;;;;;;5051493;28;20790;-52
2022/04/06 02:14:24;;;;;;;14.50;13.00;;;10.90;99.90;;;;;;5051318;28;20435;-52
2022/04/06 02:16:51;;;;;;;14.53;13.13;;;10.90;99.90;;;;;;5051110;28;20462;-51
2022/04/06 02:19:17;;;;;;;14.70;13.20;;;10.90;99.90;;;;;;5051027;28;20441;-52
2022/04/06 02:21:44;;;;;;;14.50;13.00;;;10.90;99.90;;;;;;5051117;28;20621;-51
2022/04/06 02:24:11;;;;;;;15.60;14.00;;;10.90;99.90;;;;;;5051077;28;20445;-52
2022/04/06 02:26:37;;;;;;;14.40;13.00;;;10.90;99.90;;;;;;5051139;28;20851;-52
2022/04/06 02:29:05;;;;;;;15.47;13.60;;;10.90;99.90;;;;;;5050977;28;20426;-51
2022/04/06 02:31:32;;;;;;;14.23;12.83;;;10.90;99.90;;;;;;5051032;28;20442;-51
2022/04/06 02:33:59;;;;;;;14.23;12.73;;;10.80;99.90;;;;;;5051128;28;20435;-52
2022/04/06 02:36:25;;;;;;;16.50;13.90;;;10.90;99.90;;;;;;5051369;28;20458;-51
2022/04/06 02:38:52;;;;;;;16.13;14.53;;;10.90;99.90;;;;;;5054859;28;20484;-51
2022/04/06 02:41:19;;;;;;;15.63;13.93;;;10.80;99.90;;;;;;5054827;28;20482;-51
2022/04/06 02:43:45;;;;;;;16.40;13.47;;;10.90;99.90;;;;;;5055021;28;20427;-52
2022/04/06 02:46:14;;;;;;;15.60;14.00;;;10.80;99.90;;;;;;5054726;28;20459;-51
2022/04/06 02:48:41;;;;;;;14.77;13.23;;;10.90;99.90;;;;;;5054502;28;20463;-50
2022/04/06 02:51:07;;;;;;;15.13;13.57;;;10.90;99.90;;;;;;5054658;28;20500;-52
2022/04/06 02:53:34;;;;;;;16.83;14.70;;;10.90;99.90;;;;;;5061155;28;20408;-52
2022/04/06 02:56:00;;;;;;;14.87;13.37;;;10.90;99.90;;;;;;5084822;28;20881;-51
2022/04/06 02:58:27;;;;;;;15.57;14.00;;;10.80;99.90;;;;;;5094599;28;20448;-52
2022/04/06 03:00:56;;;;;;;14.80;13.20;;;10.90;99.90;;;;;;5094663;28;20445;-52
2022/04/06 03:03:24;;;;;;;13.67;12.30;;;10.90;99.90;;;;;;5094669;28;20443;-52
2022/04/06 03:05:51;;;;;;;18.87;13.67;;;10.90;99.90;;;;;;5094516;28;20453;-50
2022/04/06 03:08:18;;;;;;;15.40;14.00;;;10.90;99.90;;;;;;5094638;28;20436;-51
2022/04/06 03:10:44;;;;;;;13.40;12.10;;;10.90;99.90;;;;;;5094363;28;20440;-51
2022/04/06 03:13:11;;;;;;;14.73;13.00;;;10.90;99.90;;;;;;5094500;28;20938;-52
2022/04/06 03:15:37;;;;;;;13.93;12.53;;;10.90;99.90;;;;;;5094349;28;20456;-52
2022/04/06 03:18:04;;;;;;;15.30;13.70;;;10.90;99.90;;;;;;5094529;28;20739;-51
2022/04/06 03:20:32;;;;;;;14.00;12.50;;;10.80;99.90;;;;;;5094739;28;20444;-51
2022/04/06 03:22:59;;;;;;;15.30;13.70;;;10.90;99.90;;;;;;5095332;28;20476;-52
2022/04/06 03:25:25;;;;;;;13.37;11.97;;;10.90;99.90;;;;;;5094836;28;20484;-51
2022/04/06 03:27:52;;;;;;;15.13;13.53;;;10.90;99.90;;;;;;5094450;28;20446;-52
2022/04/06 03:30:19;;;;;;;13.97;12.57;;;10.90;99.90;;;;;;5094046;28;20412;-51
2022/04/06 03:32:45;;;;;;;14.47;12.93;;;10.90;99.90;;;;;;5093995;28;20511;-52
2022/04/06 03:35:12;;;;;;;16.00;13.83;;;11.00;99.90;;;;;;5093986;28;20469;-51
2022/04/06 03:37:40;;;;;;;13.17;11.80;;;10.90;99.90;;;;;;5094198;28;20433;-51
2022/04/06 03:40:08;;;;;;;13.43;12.07;;;10.90;99.90;;;;;;5094083;28;20436;-52
2022/04/06 03:42:35;;;;;;;13.67;12.23;;;11.00;99.90;;;;;;5093768;28;20472;-52
2022/04/06 03:45:01;;;;;;;15.07;11.90;;;11.00;99.90;;;;;;5093705;28;20466;-51
2022/04/06 03:47:29;;;;;;;13.47;11.77;;;11.00;99.90;;;;;;5093509;28;20440;-52
2022/04/06 03:49:56;;;;;;;13.53;12.20;;;11.00;99.90;;;;;;5093597;28;20550;-51
2022/04/06 03:52:22;;;;;;;13.40;11.23;;;11.00;99.90;;;;;;5093938;28;20821;-51
2022/04/06 03:54:50;;;;;;;15.73;11.27;;;11.00;99.90;;;;;;5093175;28;20439;-52
2022/04/06 03:57:17;;;;;;;13.90;11.20;;;11.00;99.90;;;;;;5055134;28;20470;-52
2022/04/06 03:59:43;;;;;;;12.17;10.80;;;10.90;99.90;;;;;;5073238;28;20430;-51
2022/04/06 04:02:10;;;;;;;13.67;11.40;;;11.00;99.90;;;;;;5073362;28;20478;-51
2022/04/06 04:04:37;;;;;;;14.30;11.03;;;11.00;99.90;;;;;;5073112;28;20806;-51
2022/04/06 04:07:03;;;;;;;11.67;10.47;;;10.90;99.90;;;;;;5073121;28;20523;-52
2022/04/06 04:09:30;;;;;;;14.03;11.73;;;11.00;99.90;;;;;;5073087;28;20400;-52
2022/04/06 04:11:58;;;;;;;11.47;10.20;;;11.00;99.90;;;;;;5073203;28;20426;-52
2022/04/06 04:14:25;;;;;;;11.57;10.07;;;11.00;99.90;;;;;;5072883;28;20504;-51
2022/04/06 04:16:52;;;;;;;12.77;9.80;;;10.90;99.90;;;;;;5072895;28;20428;-52
2022/04/06 04:19:19;;;;;;;14.20;10.30;;;11.00;99.90;;;;;;5072750;28;20434;-52
2022/04/06 04:21:45;;;;;;;11.03;9.93;;;11.00;99.90;;;;;;5073161;28;20536;-51
2022/04/06 04:24:12;;;;;;;12.80;9.63;;;11.00;99.90;;;;;;5073019;28;20453;-51
2022/04/06 04:26:39;;;;;;;12.40;9.73;;;11.00;99.90;;;;;;5072753;28;20466;-52
2022/04/06 04:29:08;;;;;;;14.30;10.27;;;10.90;99.90;;;;;;5054308;28;20942;-51
2022/04/06 04:31:35;;;;;;;11.43;9.20;;;10.90;99.90;;;;;;5072791;28;20426;-52
2022/04/06 04:34:02;;;;;;;12.87;10.40;;;10.90;99.90;;;;;;5072504;28;20783;-51
2022/04/06 04:36:29;;;;;;;14.13;10.30;;;10.90;99.90;;;;;;5072514;28;20459;-52
2022/04/06 04:38:56;;;;;;;12.93;10.67;;;10.90;99.90;;;;;;5072668;28;20475;-52
2022/04/06 04:41:23;;;;;;;12.53;10.70;;;10.90;99.90;;;;;;5072706;28;20775;-52
2022/04/06 04:43:50;;;;;;;13.87;10.60;;;10.90;99.90;;;;;;5072321;28;20437;-51
2022/04/06 04:46:19;;;;;;;17.70;11.90;;;10.90;99.90;;;;;;5072201;28;20458;-51
2022/04/06 04:48:45;;;;;;;13.70;12.07;;;10.90;99.90;;;;;;5072149;28;20430;-51
2022/04/06 04:51:12;;;;;;;12.10;10.90;;;10.90;99.90;;;;;;5072438;28;20771;-52
2022/04/06 04:53:39;;;;;;;14.40;10.80;;;10.90;99.90;;;;;;5072301;28;20434;-51
2022/04/06 04:56:05;;;;;;;13.97;11.27;;;10.90;99.90;;;;;;5072065;28;21248;-51
2022/04/06 04:58:32;;;;;;;14.30;11.20;;;10.90;99.90;;;;;;5071789;28;20541;-52
2022/04/06 05:00:59;;;;;;;13.57;12.17;;;10.90;99.90;;;;;;5071531;28;20435;-52
2022/04/06 05:03:27;;;;;;;13.77;10.93;;;10.90;99.90;;;;;;5072063;28;20703;-52
2022/04/06 05:05:56;;;;;;;13.33;12.03;;;11.00;99.90;;;;;;5071923;28;21000;-53
2022/04/06 05:08:23;;;;;;;13.13;11.73;;;10.90;99.90;;;;;;5072085;28;20445;-50
2022/04/06 05:10:49;;;;;;;13.23;11.83;;;10.90;99.90;;;;;;5071750;28;20429;-51
2022/04/06 05:13:17;;;;;;;15.63;12.23;;;11.00;99.90;;;;;;5071687;28;20438;-51
2022/04/06 05:15:44;;;;;;;16.97;12.90;;;11.00;99.90;;;;;;5071659;28;21015;-51
2022/04/06 05:18:10;;;;;;;22.70;12.83;;;11.00;99.90;;;;;;5071838;28;20533;-50
2022/04/06 05:20:39;;;;;;;20.27;12.67;;;11.00;99.90;;;;;;5071415;28;20438;-51
2022/04/06 05:23:06;;;;;;;16.30;11.43;;;11.00;99.90;;;;;;5071605;28;20973;-51
2022/04/06 05:25:32;;;;;;;14.07;11.57;;;11.00;99.90;;;;;;5095029;22;20466;-45
2022/04/06 05:27:59;;;;;;;12.97;11.60;;;11.00;99.90;;;;;;5091263;28;20449;-45
2022/04/06 05:30:27;;;;;;;14.60;13.07;;;11.00;99.90;;;;;;5092678;28;20449;-45
2022/04/06 05:32:56;;;;;;;14.97;11.43;;;11.00;99.90;;;;;;5092798;28;20947;-45
2022/04/06 05:35:24;;;;;;;14.00;11.97;;;11.00;99.90;;;;;;5093309;28;20437;-47
2022/04/06 05:37:52;;;;;;;12.90;11.50;;;11.10;99.90;;;;;;5072857;28;20434;-46
2022/04/06 05:40:20;;;;;;;15.60;11.43;;;11.10;99.90;;;;;;5072138;28;20445;-45
2022/04/06 05:42:47;;;;;;;13.50;11.77;;;11.10;99.90;;;;;;5072130;28;20482;-46
2022/04/06 05:45:14;;;;;;;14.10;11.50;;;11.10;99.90;;;;;;5072195;28;20434;-46
2022/04/06 05:47:42;;;;;;;13.63;11.60;;;11.20;99.90;;;;;;5072783;28;20461;-45
2022/04/06 05:50:10;;;;;;;13.50;11.40;;;11.30;99.90;;;;;;5072282;28;20431;-45
2022/04/06 05:52:37;;;;;;;15.77;11.27;;;11.30;99.90;;;;;;5072433;28;20432;-46
2022/04/06 05:55:06;;;;;;;14.53;11.20;;;11.40;99.90;;;;;;5072775;28;20487;-45
2022/04/06 05:57:33;;;;;;;13.60;12.13;;;11.40;99.90;;;;;;5071702;28;20459;-46
2022/04/06 05:59:59;;;;;;;13.90;10.87;;;11.40;99.90;;;;;;5071288;28;21027;-45
2022/04/06 06:02:29;;;;;;;16.73;13.00;;;11.50;99.90;;;;;;5071729;28;20474;-46
2022/04/06 06:04:55;;;;;;;17.33;11.87;;;11.50;99.90;;;;;;5053830;28;20446;-45
2022/04/06 06:07:22;;;;;;;18.17;12.40;;;11.50;99.90;;;;;;5072279;28;20468;-45
2022/04/06 06:09:49;;;;;;;15.73;12.40;;;11.50;99.90;;;;;;5071201;28;20426;-46
2022/04/06 06:12:17;;;;;;;15.67;12.40;;;11.50;99.90;;;;;;5075252;28;20434;-47
2022/04/06 06:14:43;;;;;;;14.50;12.23;;;11.50;99.90;;;;;;5075872;28;20434;-45
2022/04/06 06:17:10;;;;;;;19.37;12.50;;;11.60;99.90;;;;;;5075939;28;20469;-46
2022/04/06 06:19:37;;;;;;;16.10;12.90;;;11.60;99.90;;;;;;5075582;28;20852;-45
2022/04/06 06:22:04;;;;;;;15.43;12.57;;;11.60;99.90;;;;;;5076351;28;20436;-45
2022/04/06 06:24:31;;;;;;;14.57;13.07;;;11.60;99.90;;;;;;5075269;28;20633;-46
2022/04/06 06:26:58;;;;;;;17.93;12.97;;;11.60;99.90;;;;;;5074616;28;20473;-45
2022/04/06 06:29:26;;;;;;;15.60;13.13;;;11.60;99.90;;;;;;5056753;28;20489;-45
2022/04/06 06:31:54;;;;;;;21.30;13.97;;;11.60;99.90;;;;;;5075363;28;20924;-45
2022/04/06 06:34:21;;;;;;;19.23;14.43;;;11.60;99.90;;;;;;5075164;28;20480;-45
2022/04/06 06:36:48;;;;;;;26.27;15.53;;;11.60;99.90;;;;;;5075326;28;20433;-45
2022/04/06 06:39:14;;;;;;;24.50;16.97;;;11.60;99.90;;;;;;5074791;28;20913;-46
2022/04/06 06:41:42;;;;;;;21.03;16.60;;;11.70;99.90;;;;;;5074904;28;20441;-47
2022/04/06 06:44:09;;;;;;;24.00;15.97;;;11.70;99.90;;;;;;5057044;28;20510;-46
2022/04/06 06:46:37;;;;;;;20.70;18.17;;;11.80;99.90;;;;;;5075322;28;20447;-44
2022/04/06 06:49:04;;;;;;;21.93;15.87;;;11.80;99.90;;;;;;5074529;28;20774;-45
2022/04/06 06:51:31;;;;;;;22.17;16.00;;;11.90;99.90;;;;;;5074958;28;20455;-45
2022/04/06 06:53:58;;;;;;;23.10;15.53;;;11.90;99.90;;;;;;5056629;28;20454;-45
2022/04/06 06:56:25;;;;;;;22.07;16.23;;;11.90;99.90;;;;;;5074973;28;20474;-45
2022/04/06 06:58:52;;;;;;;23.90;17.60;;;11.90;99.90;;;;;;5074483;28;20780;-44
2022/04/06 07:01:19;;;;;;;21.70;16.83;;;11.90;99.90;;;;;;5074807;28;20430;-44
2022/04/06 07:03:47;;;;;;;28.83;18.00;;;11.90;99.90;;;;;;5074783;28;20479;-46
2022/04/06 07:06:14;;;;;;;22.80;18.47;;;12.00;99.90;;;;;;5074599;28;20457;-45
2022/04/06 07:08:41;;;;;;;21.20;17.70;;;12.00;99.90;;;;;;5074434;28;20449;-45
2022/04/06 07:11:07;;;;;;;26.10;16.93;;;12.00;99.90;;;;;;5073986;28;20434;-45
2022/04/06 07:13:34;;;;;;;28.03;18.83;;;12.00;99.90;;;;;;5056415;28;20477;-45
2022/04/06 07:16:01;;;;;;;26.13;17.93;;;12.00;99.90;;;;;;5074645;28;20472;-45
2022/04/06 07:18:29;;;;;;;21.73;17.50;;;12.00;99.90;;;;;;5072731;28;20448;-45
2022/04/06 07:20:57;;;;;;;21.63;18.70;;;12.10;99.90;;;;;;5074417;28;20790;-45
2022/04/06 07:23:24;;;;;;;21.20;17.17;;;12.10;99.90;;;;;;5073770;28;20568;-46
2022/04/06 07:25:50;;;;;;;24.00;17.80;;;12.10;99.90;;;;;;5055735;28;20470;-45
2022/04/06 07:28:17;;;;;;;23.33;18.53;;;12.20;99.90;;;;;;5074467;28;20432;-45
2022/04/06 07:30:43;;;;;;;21.50;17.50;;;12.20;99.90;;;;;;5074485;28;20422;-45
2022/04/06 07:33:13;;;;;;;30.83;19.37;;;12.20;99.90;;;;;;5075069;28;20431;-45
2022/04/06 07:35:39;;;;;;;19.93;17.57;;;12.30;99.90;;;;;;5074999;28;20438;-45
2022/04/06 07:38:07;;;;;;;23.13;17.07;;;12.30;99.90;;;;;;5075152;28;20435;-45
2022/04/06 07:40:35;;;;;;;26.47;17.03;;;12.40;99.90;;;;;;5074992;28;20527;-45
2022/04/06 07:43:02;;;;;;;20.83;17.13;;;12.50;99.90;;;;;;5074666;28;20620;-46
2022/04/06 07:45:29;;;;;;;24.63;16.90;;;12.50;99.90;;;;;;5074612;28;20442;-45
2022/04/06 07:47:55;;;;;;;24.30;17.03;;;12.60;99.90;;;;;;5074546;28;20787;-46
2022/04/06 07:54:11;;;;;;;22.67;15.60;;;12.90;99.90;;;;;;5074423;28;20957;-46
2022/04/06 07:56:39;;;;;;;23.13;16.33;;;12.90;99.90;;;;;;5074270;28;20483;-44
2022/04/06 07:59:06;;;;;;;16.63;14.83;;;13.00;99.90;;;;;;5074275;28;20535;-45
2022/04/06 08:01:33;;;;;;;17.80;14.20;;;13.10;99.90;;;;;;5074549;28;20439;-46
2022/04/06 08:03:59;;;;;;;18.23;14.10;;;13.20;99.90;;;;;;5074020;28;20478;-46
2022/04/06 08:06:26;;;;;;;22.40;14.40;;;13.40;99.90;;;;;;5073988;28;20451;-45
2022/04/06 08:08:53;;;;;;;17.80;11.60;;;13.40;99.90;;;;;;5073836;28;20449;-44
2022/04/06 08:11:21;;;;;;;18.43;14.90;;;13.60;99.90;;;;;;5074142;28;20462;-47
2022/04/06 08:13:48;;;;;;;18.40;12.93;;;13.60;99.90;;;;;;5073990;28;20440;-46
2022/04/06 08:16:14;;;;;;;13.37;11.33;;;13.90;99.90;;;;;;5073561;28;20449;-46
2022/04/06 08:18:41;;;;;;;16.53;12.90;;;14.10;99.90;;;;;;5073187;28;20446;-46
2022/04/06 08:21:09;;;;;;;17.50;11.80;;;14.20;99.90;;;;;;5055952;28;20954;-46
2022/04/06 08:23:35;;;;;;;16.10;11.50;;;14.30;99.90;;;;;;5074294;28;20484;-44
2022/04/06 08:26:02;;;;;;;16.13;10.37;;;14.40;99.90;;;;;;5073244;28;20496;-45
2022/04/06 08:28:30;;;;;;;15.20;11.47;;;14.50;99.90;;;;;;5073536;28;20506;-46
2022/04/06 08:30:57;;;;;;;15.50;10.97;;;14.60;99.90;;;;;;5073668;28;20523;-45
2022/04/06 08:33:24;;;;;;;12.30;10.50;;;14.70;99.90;;;;;;5073697;28;20430;-45
2022/04/06 08:35:51;;;;;;;17.60;11.10;;;14.70;99.90;;;;;;5072963;28;20446;-45
2022/04/06 08:38:18;;;;;;;17.30;12.10;;;14.60;99.90;;;;;;5074169;28;20455;-46
2022/04/06 08:40:45;;;;;;;15.83;11.00;;;14.50;99.90;;;;;;5073105;28;20949;-46
2022/04/06 08:43:14;;;;;;;16.20;11.93;;;14.40;99.90;;;;;;5073427;28;20495;-45
2022/04/06 08:45:42;;;;;;;12.17;10.47;;;14.30;99.90;;;;;;5073331;28;20471;-46
2022/04/06 08:48:11;;;;;;;20.37;12.93;;;14.20;99.90;;;;;;5073258;28;20441;-46
2022/04/06 08:50:39;;;;;;;19.33;10.47;;;14.00;99.90;;;;;;5073226;28;20523;-46
2022/04/06 08:53:08;;;;;;;14.17;11.17;;;13.90;99.90;;;;;;5073079;28;20415;-44
2022/04/06 08:55:35;;;;;;;18.83;11.03;;;13.90;99.90;;;;;;5073924;28;20437;-45
2022/04/06 08:58:03;;;;;;;16.33;10.00;;;13.80;99.90;;;;;;5073418;28;20441;-46
2022/04/06 09:00:30;;;;;;;16.00;9.80;;;13.70;99.90;;;;;;5072797;28;20437;-45
2022/04/06 09:02:58;;;;;;;16.53;10.30;;;13.80;99.90;;;;;;5072952;28;20469;-45
2022/04/06 09:05:27;;;;;;;12.60;8.87;;;13.80;99.90;;;;;;5072246;28;20462;-45
2022/04/06 09:07:54;;;;;;;12.70;8.90;;;13.90;99.90;;;;;;5073469;28;20545;-46
2022/04/06 09:10:33;;;;;;;14.07;8.63;;;14.00;99.90;;;;;;5073505;28;20515;-45
2022/04/06 09:13:14;;;;;;;12.17;8.37;;;14.10;99.90;;;;;;5074150;28;20945;-45
2022/04/06 09:15:41;;;;;;;10.40;8.77;;;14.30;99.90;;;;;;5053748;28;20433;-45
2022/04/06 09:18:09;;;;;;;13.67;8.40;;;14.40;99.90;;;;;;5054186;28;20594;-45
2022/04/06 09:20:36;;;;;;;16.77;7.57;;;14.60;99.90;;;;;;5053067;28;20442;-45
2022/04/06 09:23:04;;;;;;;14.57;7.93;;;14.60;99.90;;;;;;5064648;28;20488;-45
2022/04/06 09:25:35;;;;;;;11.13;8.30;;;14.70;99.90;;;;;;5074400;28;20482;-44
2022/04/06 09:28:10;;;;;;;12.30;8.20;;;14.80;99.90;;;;;;5074266;28;20940;-45
2022/04/06 09:30:39;;;;;;;15.90;8.73;;;14.90;99.90;;;;;;5073192;28;20430;-45
2022/04/06 09:33:15;;;;;;;8.83;7.30;;;14.90;99.90;;;;;;5074198;28;20443;-46
2022/04/06 09:35:42;;;;;;;14.97;8.80;;;15.00;99.90;;;;;;5074733;28;20814;-45
2022/04/06 09:38:10;;;;;;;12.30;7.60;;;15.00;99.90;;;;;;5073340;28;20517;-45
2022/04/06 09:40:39;;;;;;;13.07;8.47;;;15.10;99.90;;;;;;5055443;28;20469;-45
2022/04/06 09:43:06;;;;;;;11.73;8.17;;;15.20;99.90;;;;;;5073950;28;20439;-45
2022/04/06 09:48:18;;;;;;;10.83;7.97;;;15.10;99.80;;;;;;5073457;28;20979;-45
2022/04/06 09:50:54;;;;;;;9.90;7.93;;;15.10;99.70;;;;;;5072399;28;20448;-44
2022/04/06 09:53:25;;;;;;;11.80;8.60;;;15.00;99.60;;;;;;5073350;28;20425;-45
2022/04/06 09:55:54;;;;;;;15.43;8.87;;;15.00;99.50;;;;;;5073311;28;20501;-46
2022/04/06 09:58:22;;;;;;;14.10;8.93;;;14.90;99.40;;;;;;5072091;28;20430;-45
2022/04/06 10:00:49;;;;;;;13.07;8.93;;;14.90;99.50;;;;;;5072107;28;20495;-47
2022/04/06 10:03:18;;;;;;;16.17;8.60;;;14.80;99.30;;;;;;5071737;28;20470;-46
2022/04/06 10:05:47;;;;;;;9.10;7.70;;;14.80;99.40;;;;;;5071886;28;20441;-45
2022/04/06 10:08:13;;;;;;;15.93;9.60;;;14.90;99.40;;;;;;5071795;28;20438;-46
2022/04/06 10:10:42;;;;;;;17.10;8.27;;;15.00;99.30;;;;;;5071616;28;20517;-46
2022/04/06 10:13:09;;;;;;;11.00;8.20;;;14.80;98.70;;;;;;5072298;28;20925;-44
2022/04/06 10:15:37;;;;;;;12.00;8.10;;;15.10;99.10;;;;;;5072513;28;20884;-46
2022/04/06 10:18:04;;;;;;;11.60;7.87;;;15.20;98.90;;;;;;5053818;28;20438;-45
2022/04/06 10:20:40;;;;;;;12.00;8.23;;;15.30;98.80;;;;;;5071888;28;20429;-46
2022/04/06 10:23:13;;;;;;;17.20;8.90;;;15.50;98.80;;;;;;5072094;28;20437;-47
2022/04/06 10:25:51;;;;;;;15.00;8.10;;;15.60;98.70;;;;;;5071874;28;20429;-45
2022/04/06 10:28:19;;;;;;;9.73;8.33;;;15.80;98.20;;;;;;5072198;28;20429;-46
2022/04/06 10:31:13;;;;;;;11.20;9.00;;;15.70;98.20;;;;;;5071741;28;20437;-45
2022/04/06 10:33:41;;;;;;;13.10;9.07;;;15.60;98.00;;;;;;5072364;28;20430;-46
2022/04/06 10:36:20;;;;;;;15.57;8.93;;;15.40;97.90;;;;;;5072215;28;20962;-45
2022/04/06 10:39:12;;;;;;;11.80;8.80;;;15.30;98.00;;;;;;5071333;28;20432;-46
2022/04/06 10:42:00;;;;;;;18.57;9.37;;;15.30;97.80;;;;;;5071633;28;20434;-46
2022/04/06 10:44:39;;;;;;;14.70;9.87;;;15.20;98.00;;;;;;5071048;28;20492;-50
2022/04/06 10:47:07;;;;;;;12.43;9.13;;;15.20;97.90;;;;;;5071897;28;20439;-45
2022/04/06 10:49:35;;;;;;;10.23;8.63;;;15.10;97.70;;;;;;5070641;28;20456;-45
2022/04/06 10:52:23;;;;;;;15.37;8.90;;;15.10;98.00;;;;;;5071008;28;20436;-44
2022/04/06 10:54:51;;;;;;;14.97;8.67;;;15.30;98.00;;;;;;5071046;28;20919;-45
2022/04/06 10:57:18;;;;;;;15.23;7.90;;;15.40;97.80;;;;;;5070747;28;20460;-45
2022/04/06 11:00:11;;;;;;;19.97;9.10;;;15.60;97.50;;;;;;5074372;28;20448;-47
2022/04/06 11:02:48;;;;;;;12.57;7.93;;;15.80;97.00;;;;;;5074905;28;20444;-44
2022/04/06 11:05:50;;;;;;;13.00;7.57;;;15.90;96.70;;;;;;5075203;28;20841;-46
2022/04/06 11:11:48;;;;;;;11.30;8.33;;;15.90;95.70;;;;;;5074503;28;20787;-46
2022/04/06 11:14:28;;;;;;;12.50;7.60;;;15.80;95.80;;;;;;5075246;28;20473;-45
2022/04/06 11:16:55;;;;;;;8.03;7.23;;;15.70;95.30;;;;;;5074872;28;20823;-46
2022/04/06 11:19:22;;;;;;;11.73;6.87;;;15.60;95.40;;;;;;5074482;28;20425;-47
2022/04/06 11:21:50;;;;;;;10.57;6.87;;;15.50;95.30;;;;;;5074631;28;20760;-44
2022/04/06 11:24:22;;;;;;;9.17;6.10;;;15.50;95.30;;;;;;5074259;28;20485;-45
2022/04/06 11:26:51;;;;;;;11.33;7.47;;;15.40;95.30;;;;;;5105966;22;20496;-50
2022/04/06 11:29:18;;;;;;;10.77;8.00;;;15.40;95.40;;;;;;5093823;28;20437;-50
2022/04/06 11:31:58;;;;;;;10.40;8.10;;;15.40;95.50;;;;;;5093828;28;20445;-49
2022/04/06 11:34:33;;;;;;;9.27;7.10;;;15.30;95.30;;;;;;5093389;28;20658;-50
2022/04/06 11:37:00;;;;;;;17.27;7.20;;;15.20;95.40;;;;;;5093875;28;20972;-50
2022/04/06 11:39:28;;;;;;;12.30;7.77;;;15.10;95.50;;;;;;5093159;28;20875;-50
2022/04/06 11:41:56;;;;;;;11.57;8.67;;;15.00;95.60;;;;;;5093425;28;20468;-50
2022/04/06 11:44:24;;;;;;;11.67;7.83;;;14.90;95.70;;;;;;5093215;28;20472;-51
2022/04/06 11:46:52;;;;;;;19.23;7.87;;;14.90;95.90;;;;;;5093239;28;20502;-50
2022/04/06 11:49:24;;;;;;;13.30;7.60;;;14.80;96.00;;;;;;5075033;28;20513;-50
2022/04/06 11:51:52;;;;;;;14.10;8.63;;;14.70;96.10;;;;;;5093394;28;20433;-50
2022/04/06 11:54:18;;;;;;;13.50;7.90;;;14.70;96.60;;;;;;5093623;28;20433;-49
2022/04/06 11:56:49;;;;;;;11.97;7.90;;;14.60;96.40;;;;;;5093258;28;20444;-49
2022/04/06 11:59:18;;;;;;;13.60;9.33;;;14.50;96.50;;;;;;5093572;28;20801;-50
2022/04/06 12:01:46;;;;;;;12.97;8.70;;;14.50;96.70;;;;;;5093377;28;20437;-50
2022/04/06 12:04:15;;;;;;;12.60;8.40;;;14.40;96.80;;;;;;5093182;28;20965;-51
2022/04/06 12:06:41;;;;;;;10.90;7.57;;;14.40;96.70;;;;;;5092901;28;20452;-51
2022/04/06 12:09:08;;;;;;;16.00;10.30;;;14.30;96.70;;;;;;5092449;28;20432;-50
2022/04/06 12:11:36;;;;;;;14.37;8.27;;;14.30;96.60;;;;;;5082831;28;20440;-50
2022/04/06 12:14:03;;;;;;;18.27;7.90;;;14.30;96.50;;;;;;5083372;28;20497;-49
2022/04/06 12:16:31;;;;;;;21.63;8.80;;;14.30;96.60;;;;;;5093327;28;20998;-50
2022/04/06 12:18:58;;;;;;;16.20;8.40;;;14.30;96.60;;;;;;5092828;28;20437;-50
2022/04/06 12:21:28;;;;;;;9.97;8.43;;;14.30;96.50;;;;;;5092581;28;20485;-50
2022/04/06 12:23:55;;;;;;;9.70;7.63;;;14.30;96.50;;;;;;5092754;28;20441;-50
2022/04/06 12:26:23;;;;;;;10.43;7.40;;;14.30;96.40;;;;;;5092640;28;20900;-51
2022/04/06 12:28:56;;;;;;;15.10;8.40;;;14.30;96.50;;;;;;5092971;28;20435;-50
2022/04/06 12:31:34;;;;;;;12.50;8.30;;;14.30;96.50;;;;;;5092780;28;20421;-50
2022/04/06 12:34:00;;;;;;;10.70;7.77;;;14.30;96.50;;;;;;5092670;28;20986;-50
2022/04/06 12:36:30;;;;;;;11.20;7.67;;;14.30;96.40;;;;;;5092566;28;20445;-51
2022/04/06 12:39:00;;;;;;;10.10;7.90;;;14.30;96.50;;;;;;5092311;28;20428;-51
2022/04/06 12:41:28;;;;;;;11.90;7.83;;;14.20;96.50;;;;;;5092494;28;20460;-50
2022/04/06 12:43:55;;;;;;;8.10;6.40;;;14.20;96.50;;;;;;5092653;28;20921;-51
2022/04/06 12:46:42;;;;;;;9.00;6.77;;;14.30;96.60;;;;;;5092445;28;20471;-50
2022/04/06 12:49:24;;;;;;;13.90;7.43;;;14.30;96.40;;;;;;5091876;28;20809;-50
2022/04/06 12:52:13;;;;;;;12.50;8.30;;;14.30;96.50;;;;;;5092275;28;20437;-51